sensor_id;sensor_type;location;lat;lon;timestamp;P1;durP1;ratioP1;P2;durP2;ratioP2
70010;SDS011;59543;37.950;-122.338;2023-05-19T00:02:16;23.92;;;5.88;;
70010;SDS011;59543;37.950;-122.338;2023-05-19T00:04:45;24.38;;;6.53;;
70010;SDS011;59543;37.950;-122.338;2023-05-19T00:07:12;27.15;;;6.45;;
70010;SDS011;59543;37.950;-122.338;2023-05-19T00:09:44;28.23;;;6.93;;
70010;SDS011;59543;37.950;-122.338;2023-05-19T00:12:11;26.63;;;6.35;;
70010;SDS011;59543;37.950;-122.338;2023-05-19T00:14:38;25.13;;;6.78;;
70010;SDS011;59543;37.950;-122.338;2023-05-19T00:17:04;27.75;;;5.82;;
70010;SDS011;59543;37.950;-122.338;2023-05-19T00:19:32;27.60;;;6.45;;
70010;SDS011;59543;37.950;-122.338;2023-05-19T00:21:58;24.88;;;6.70;;
70010;SDS011;59543;37.950;-122.338;2023-05-19T00:24:24;31.17;;;6.40;;
70010;SDS011;59543;37.950;-122.338;2023-05-19T00:26:50;28.00;;;6.72;;
70010;SDS011;59543;37.950;-122.338;2023-05-19T00:29:16;36.25;;;7.07;;
70010;SDS011;59543;37.950;-122.338;2023-05-19T00:31:43;26.73;;;6.60;;
70010;SDS011;59543;37.950;-122.338;2023-05-19T00:34:09;39.72;;;6.78;;
70010;SDS011;59543;37.950;-122.338;2023-05-19T00:36:35;31.38;;;6.40;;
70010;SDS011;59543;37.950;-122.338;2023-05-19T00:39:02;27.83;;;6.57;;
70010;SDS011;59543;37.950;-122.338;2023-05-19T00:41:28;27.60;;;6.57;;
70010;SDS011;59543;37.950;-122.338;2023-05-19T00:43:54;24.50;;;6.55;;
70010;SDS011;59543;37.950;-122.338;2023-05-19T00:46:21;33.65;;;7.63;;
70010;SDS011;59543;37.950;-122.338;2023-05-19T00:48:47;31.73;;;7.22;;
70010;SDS011;59543;37.950;-122.338;2023-05-19T00:51:13;32.22;;;7.63;;
70010;SDS011;59543;37.950;-122.338;2023-05-19T00:53:41;31.85;;;7.25;;
70010;SDS011;59543;37.950;-122.338;2023-05-19T00:56:12;27.98;;;6.50;;
70010;SDS011;59543;37.950;-122.338;2023-05-19T00:58:40;27.15;;;6.22;;
70010;SDS011;59543;37.950;-122.338;2023-05-19T01:01:06;24.92;;;7.05;;
70010;SDS011;59543;37.950;-122.338;2023-05-19T01:03:33;28.42;;;7.18;;
70010;SDS011;59543;37.950;-122.338;2023-05-19T01:06:00;28.02;;;6.93;;
70010;SDS011;59543;37.950;-122.338;2023-05-19T01:08:30;39.60;;;7.78;;
70010;SDS011;59543;37.950;-122.338;2023-05-19T01:10:57;37.95;;;7.32;;
70010;SDS011;59543;37.950;-122.338;2023-05-19T01:13:25;35.40;;;7.72;;
70010;SDS011;59543;37.950;-122.338;2023-05-19T01:21:57;28.40;;;7.22;;
70010;SDS011;59543;37.950;-122.338;2023-05-19T01:27:38;32.88;;;7.47;;
70010;SDS011;59543;37.950;-122.338;2023-05-19T01:30:26;39.45;;;8.30;;
70010;SDS011;59543;37.950;-122.338;2023-05-19T01:33:08;35.33;;;7.68;;
70010;SDS011;59543;37.950;-122.338;2023-05-19T01:35:36;32.17;;;7.43;;
70010;SDS011;59543;37.950;-122.338;2023-05-19T01:38:04;33.75;;;7.57;;
70010;SDS011;59543;37.950;-122.338;2023-05-19T01:40:34;33.00;;;7.45;;
70010;SDS011;59543;37.950;-122.338;2023-05-19T01:43:02;35.63;;;7.78;;
70010;SDS011;59543;37.950;-122.338;2023-05-19T01:45:30;36.17;;;7.03;;
70010;SDS011;59543;37.950;-122.338;2023-05-19T01:47:59;35.55;;;7.43;;
70010;SDS011;59543;37.950;-122.338;2023-05-19T01:50:27;37.75;;;7.60;;
70010;SDS011;59543;37.950;-122.338;2023-05-19T01:52:54;26.23;;;6.63;;
70010;SDS011;59543;37.950;-122.338;2023-05-19T01:55:20;37.53;;;7.45;;
70010;SDS011;59543;37.950;-122.338;2023-05-19T02:00:18;40.78;;;7.32;;
70010;SDS011;59543;37.950;-122.338;2023-05-19T02:06:13;24.60;;;6.20;;
70010;SDS011;59543;37.950;-122.338;2023-05-19T02:09:13;32.88;;;7.25;;
70010;SDS011;59543;37.950;-122.338;2023-05-19T02:17:35;39.85;;;8.38;;
70010;SDS011;59543;37.950;-122.338;2023-05-19T02:20:06;34.13;;;6.93;;
70010;SDS011;59543;37.950;-122.338;2023-05-19T02:22:34;32.03;;;7.40;;
70010;SDS011;59543;37.950;-122.338;2023-05-19T02:25:00;36.78;;;6.93;;
70010;SDS011;59543;37.950;-122.338;2023-05-19T02:27:27;48.78;;;8.90;;
70010;SDS011;59543;37.950;-122.338;2023-05-19T02:29:54;32.33;;;7.53;;
70010;SDS011;59543;37.950;-122.338;2023-05-19T02:32:20;40.30;;;8.05;;
70010;SDS011;59543;37.950;-122.338;2023-05-19T02:34:47;23.48;;;5.90;;
70010;SDS011;59543;37.950;-122.338;2023-05-19T02:37:13;30.48;;;7.82;;
70010;SDS011;59543;37.950;-122.338;2023-05-19T02:39:40;36.25;;;7.22;;
70010;SDS011;59543;37.950;-122.338;2023-05-19T02:42:07;36.30;;;7.53;;
70010;SDS011;59543;37.950;-122.338;2023-05-19T02:44:33;29.48;;;7.05;;
70010;SDS011;59543;37.950;-122.338;2023-05-19T02:46:59;29.00;;;6.55;;
70010;SDS011;59543;37.950;-122.338;2023-05-19T02:49:26;32.13;;;7.10;;
70010;SDS011;59543;37.950;-122.338;2023-05-19T02:51:55;30.60;;;6.90;;
70010;SDS011;59543;37.950;-122.338;2023-05-19T02:54:21;33.53;;;6.60;;
70010;SDS011;59543;37.950;-122.338;2023-05-19T02:56:48;33.05;;;7.47;;
70010;SDS011;59543;37.950;-122.338;2023-05-19T02:59:14;27.40;;;6.90;;
70010;SDS011;59543;37.950;-122.338;2023-05-19T03:01:40;31.77;;;8.00;;
70010;SDS011;59543;37.950;-122.338;2023-05-19T03:04:06;36.10;;;6.90;;
70010;SDS011;59543;37.950;-122.338;2023-05-19T03:06:33;30.50;;;6.93;;
70010;SDS011;59543;37.950;-122.338;2023-05-19T03:09:00;34.47;;;8.15;;
70010;SDS011;59543;37.950;-122.338;2023-05-19T03:11:26;34.33;;;7.70;;
70010;SDS011;59543;37.950;-122.338;2023-05-19T03:13:53;36.22;;;7.75;;
70010;SDS011;59543;37.950;-122.338;2023-05-19T03:16:20;35.45;;;8.25;;
70010;SDS011;59543;37.950;-122.338;2023-05-19T03:18:46;33.67;;;7.07;;
70010;SDS011;59543;37.950;-122.338;2023-05-19T03:21:12;29.55;;;7.22;;
70010;SDS011;59543;37.950;-122.338;2023-05-19T03:23:38;34.30;;;7.30;;
70010;SDS011;59543;37.950;-122.338;2023-05-19T03:26:04;43.17;;;7.80;;
70010;SDS011;59543;37.950;-122.338;2023-05-19T03:28:31;39.50;;;8.35;;
70010;SDS011;59543;37.950;-122.338;2023-05-19T03:30:57;36.85;;;7.97;;
70010;SDS011;59543;37.950;-122.338;2023-05-19T03:33:23;36.78;;;7.53;;
70010;SDS011;59543;37.950;-122.338;2023-05-19T03:35:52;36.40;;;8.02;;
70010;SDS011;59543;37.950;-122.338;2023-05-19T03:38:18;34.65;;;7.82;;
70010;SDS011;59543;37.950;-122.338;2023-05-19T03:40:44;31.40;;;7.43;;
70010;SDS011;59543;37.950;-122.338;2023-05-19T03:43:12;35.15;;;7.57;;
70010;SDS011;59543;37.950;-122.338;2023-05-19T03:45:38;40.08;;;9.05;;
70010;SDS011;59543;37.950;-122.338;2023-05-19T03:48:05;35.20;;;8.38;;
70010;SDS011;59543;37.950;-122.338;2023-05-19T03:50:31;38.70;;;8.32;;
70010;SDS011;59543;37.950;-122.338;2023-05-19T03:52:58;35.38;;;8.35;;
70010;SDS011;59543;37.950;-122.338;2023-05-19T03:55:25;41.78;;;8.80;;
70010;SDS011;59543;37.950;-122.338;2023-05-19T03:57:54;38.15;;;8.32;;
70010;SDS011;59543;37.950;-122.338;2023-05-19T04:00:21;36.28;;;8.00;;
70010;SDS011;59543;37.950;-122.338;2023-05-19T04:02:48;43.42;;;7.88;;
70010;SDS011;59543;37.950;-122.338;2023-05-19T04:05:14;38.67;;;8.95;;
70010;SDS011;59543;37.950;-122.338;2023-05-19T04:07:40;46.00;;;8.73;;
70010;SDS011;59543;37.950;-122.338;2023-05-19T04:10:07;38.08;;;9.10;;
70010;SDS011;59543;37.950;-122.338;2023-05-19T04:12:33;40.83;;;8.63;;
70010;SDS011;59543;37.950;-122.338;2023-05-19T04:15:00;40.55;;;8.63;;
70010;SDS011;59543;37.950;-122.338;2023-05-19T04:17:26;40.47;;;9.00;;
70010;SDS011;59543;37.950;-122.338;2023-05-19T04:19:52;35.15;;;8.55;;
70010;SDS011;59543;37.950;-122.338;2023-05-19T04:22:19;40.83;;;8.68;;
70010;SDS011;59543;37.950;-122.338;2023-05-19T04:24:46;41.40;;;8.63;;
70010;SDS011;59543;37.950;-122.338;2023-05-19T04:27:13;47.65;;;9.35;;
70010;SDS011;59543;37.950;-122.338;2023-05-19T04:29:40;45.75;;;9.75;;
70010;SDS011;59543;37.950;-122.338;2023-05-19T04:32:06;42.65;;;8.63;;
70010;SDS011;59543;37.950;-122.338;2023-05-19T04:34:33;43.45;;;8.45;;
70010;SDS011;59543;37.950;-122.338;2023-05-19T04:37:00;44.58;;;8.88;;
70010;SDS011;59543;37.950;-122.338;2023-05-19T04:39:26;42.53;;;8.68;;
70010;SDS011;59543;37.950;-122.338;2023-05-19T04:41:53;45.50;;;8.98;;
70010;SDS011;59543;37.950;-122.338;2023-05-19T04:44:19;46.67;;;8.82;;
70010;SDS011;59543;37.950;-122.338;2023-05-19T04:46:45;50.55;;;8.60;;
70010;SDS011;59543;37.950;-122.338;2023-05-19T04:49:11;35.80;;;9.20;;
70010;SDS011;59543;37.950;-122.338;2023-05-19T04:51:38;40.25;;;8.50;;
70010;SDS011;59543;37.950;-122.338;2023-05-19T04:54:10;37.15;;;8.13;;
70010;SDS011;59543;37.950;-122.338;2023-05-19T04:56:36;48.97;;;9.18;;
70010;SDS011;59543;37.950;-122.338;2023-05-19T04:59:02;44.08;;;8.68;;
70010;SDS011;59543;37.950;-122.338;2023-05-19T05:01:28;42.47;;;8.63;;
70010;SDS011;59543;37.950;-122.338;2023-05-19T05:03:57;46.33;;;9.25;;
70010;SDS011;59543;37.950;-122.338;2023-05-19T05:06:23;46.50;;;9.27;;
70010;SDS011;59543;37.950;-122.338;2023-05-19T05:08:49;38.92;;;8.30;;
70010;SDS011;59543;37.950;-122.338;2023-05-19T05:11:16;38.03;;;8.25;;
70010;SDS011;59543;37.950;-122.338;2023-05-19T05:13:43;41.65;;;9.13;;
70010;SDS011;59543;37.950;-122.338;2023-05-19T05:16:09;51.10;;;9.10;;
70010;SDS011;59543;37.950;-122.338;2023-05-19T05:18:36;45.42;;;8.73;;
70010;SDS011;59543;37.950;-122.338;2023-05-19T05:21:03;43.67;;;9.45;;
70010;SDS011;59543;37.950;-122.338;2023-05-19T05:23:31;41.38;;;8.15;;
70010;SDS011;59543;37.950;-122.338;2023-05-19T05:25:57;45.13;;;9.82;;
70010;SDS011;59543;37.950;-122.338;2023-05-19T05:28:23;41.08;;;8.77;;
70010;SDS011;59543;37.950;-122.338;2023-05-19T05:30:50;40.88;;;8.52;;
70010;SDS011;59543;37.950;-122.338;2023-05-19T05:33:17;44.33;;;9.50;;
70010;SDS011;59543;37.950;-122.338;2023-05-19T05:35:43;43.72;;;8.25;;
70010;SDS011;59543;37.950;-122.338;2023-05-19T05:38:10;39.53;;;8.77;;
70010;SDS011;59543;37.950;-122.338;2023-05-19T05:40:37;37.97;;;8.85;;
70010;SDS011;59543;37.950;-122.338;2023-05-19T05:43:03;44.65;;;9.10;;
70010;SDS011;59543;37.950;-122.338;2023-05-19T05:45:29;37.08;;;8.60;;
70010;SDS011;59543;37.950;-122.338;2023-05-19T05:47:55;44.90;;;9.27;;
70010;SDS011;59543;37.950;-122.338;2023-05-19T05:50:22;49.70;;;8.95;;
70010;SDS011;59543;37.950;-122.338;2023-05-19T05:52:48;41.78;;;9.50;;
70010;SDS011;59543;37.950;-122.338;2023-05-19T05:55:16;44.55;;;8.57;;
70010;SDS011;59543;37.950;-122.338;2023-05-19T05:57:43;42.35;;;8.57;;
70010;SDS011;59543;37.950;-122.338;2023-05-19T06:00:09;48.38;;;9.10;;
70010;SDS011;59543;37.950;-122.338;2023-05-19T06:02:45;44.38;;;8.82;;
70010;SDS011;59543;37.950;-122.338;2023-05-19T06:05:14;41.47;;;9.05;;
70010;SDS011;59543;37.950;-122.338;2023-05-19T06:07:41;45.95;;;8.35;;
70010;SDS011;59543;37.950;-122.338;2023-05-19T06:10:07;41.85;;;8.45;;
70010;SDS011;59543;37.950;-122.338;2023-05-19T06:12:34;41.53;;;9.18;;
70010;SDS011;59543;37.950;-122.338;2023-05-19T06:15:05;43.90;;;8.27;;
70010;SDS011;59543;37.950;-122.338;2023-05-19T06:17:32;34.95;;;8.57;;
70010;SDS011;59543;37.950;-122.338;2023-05-19T06:20:00;40.25;;;9.48;;
70010;SDS011;59543;37.950;-122.338;2023-05-19T06:22:28;38.55;;;8.27;;
70010;SDS011;59543;37.950;-122.338;2023-05-19T06:24:54;38.95;;;8.73;;
70010;SDS011;59543;37.950;-122.338;2023-05-19T06:27:20;52.80;;;9.07;;
70010;SDS011;59543;37.950;-122.338;2023-05-19T06:29:47;52.05;;;9.85;;
70010;SDS011;59543;37.950;-122.338;2023-05-19T06:32:13;39.95;;;7.75;;
70010;SDS011;59543;37.950;-122.338;2023-05-19T06:34:40;46.08;;;9.38;;
70010;SDS011;59543;37.950;-122.338;2023-05-19T06:37:06;44.08;;;8.75;;
70010;SDS011;59543;37.950;-122.338;2023-05-19T06:39:32;38.13;;;9.15;;
70010;SDS011;59543;37.950;-122.338;2023-05-19T06:41:58;35.78;;;7.78;;
70010;SDS011;59543;37.950;-122.338;2023-05-19T06:44:25;37.55;;;9.00;;
70010;SDS011;59543;37.950;-122.338;2023-05-19T06:46:51;41.25;;;8.98;;
70010;SDS011;59543;37.950;-122.338;2023-05-19T06:49:17;44.05;;;9.05;;
70010;SDS011;59543;37.950;-122.338;2023-05-19T06:51:43;36.67;;;8.85;;
70010;SDS011;59543;37.950;-122.338;2023-05-19T06:54:10;43.50;;;9.15;;
70010;SDS011;59543;37.950;-122.338;2023-05-19T06:56:37;40.10;;;8.88;;
70010;SDS011;59543;37.950;-122.338;2023-05-19T06:59:03;36.60;;;8.45;;
70010;SDS011;59543;37.950;-122.338;2023-05-19T07:01:29;45.65;;;9.88;;
70010;SDS011;59543;37.950;-122.338;2023-05-19T07:03:56;48.58;;;10.65;;
70010;SDS011;59543;37.950;-122.338;2023-05-19T07:06:22;41.25;;;8.68;;
70010;SDS011;59543;37.950;-122.338;2023-05-19T07:08:48;43.20;;;8.80;;
70010;SDS011;59543;37.950;-122.338;2023-05-19T07:11:14;42.50;;;8.75;;
70010;SDS011;59543;37.950;-122.338;2023-05-19T07:13:40;36.15;;;8.55;;
70010;SDS011;59543;37.950;-122.338;2023-05-19T07:16:07;35.45;;;8.23;;
70010;SDS011;59543;37.950;-122.338;2023-05-19T07:18:33;35.75;;;8.35;;
70010;SDS011;59543;37.950;-122.338;2023-05-19T07:20:59;36.75;;;8.05;;
70010;SDS011;59543;37.950;-122.338;2023-05-19T07:23:26;41.15;;;9.27;;
70010;SDS011;59543;37.950;-122.338;2023-05-19T07:25:55;41.97;;;8.95;;
70010;SDS011;59543;37.950;-122.338;2023-05-19T07:28:21;45.13;;;9.25;;
70010;SDS011;59543;37.950;-122.338;2023-05-19T07:30:47;46.67;;;9.77;;
70010;SDS011;59543;37.950;-122.338;2023-05-19T07:33:14;37.17;;;8.18;;
70010;SDS011;59543;37.950;-122.338;2023-05-19T07:35:40;48.85;;;9.55;;
70010;SDS011;59543;37.950;-122.338;2023-05-19T07:38:06;43.17;;;9.00;;
70010;SDS011;59543;37.950;-122.338;2023-05-19T07:40:33;39.17;;;9.57;;
70010;SDS011;59543;37.950;-122.338;2023-05-19T07:42:59;40.60;;;9.45;;
70010;SDS011;59543;37.950;-122.338;2023-05-19T07:45:25;43.80;;;9.77;;
70010;SDS011;59543;37.950;-122.338;2023-05-19T07:47:52;47.10;;;10.00;;
70010;SDS011;59543;37.950;-122.338;2023-05-19T07:50:19;44.50;;;9.35;;
70010;SDS011;59543;37.950;-122.338;2023-05-19T07:52:45;40.22;;;8.88;;
70010;SDS011;59543;37.950;-122.338;2023-05-19T07:55:11;51.08;;;9.90;;
70010;SDS011;59543;37.950;-122.338;2023-05-19T07:57:39;39.30;;;8.98;;
70010;SDS011;59543;37.950;-122.338;2023-05-19T08:00:06;43.35;;;9.60;;
70010;SDS011;59543;37.950;-122.338;2023-05-19T08:02:36;43.70;;;8.98;;
70010;SDS011;59543;37.950;-122.338;2023-05-19T08:05:02;35.95;;;8.32;;
70010;SDS011;59543;37.950;-122.338;2023-05-19T08:07:28;34.90;;;8.70;;
70010;SDS011;59543;37.950;-122.338;2023-05-19T08:09:55;40.92;;;8.70;;
70010;SDS011;59543;37.950;-122.338;2023-05-19T08:12:21;34.00;;;8.05;;
70010;SDS011;59543;37.950;-122.338;2023-05-19T08:14:47;33.88;;;8.10;;
70010;SDS011;59543;37.950;-122.338;2023-05-19T08:17:13;44.40;;;8.65;;
70010;SDS011;59543;37.950;-122.338;2023-05-19T08:19:40;35.25;;;8.25;;
70010;SDS011;59543;37.950;-122.338;2023-05-19T08:22:06;47.78;;;8.48;;
70010;SDS011;59543;37.950;-122.338;2023-05-19T08:24:32;41.70;;;8.10;;
70010;SDS011;59543;37.950;-122.338;2023-05-19T08:26:59;41.17;;;8.18;;
70010;SDS011;59543;37.950;-122.338;2023-05-19T08:29:25;35.33;;;8.35;;
70010;SDS011;59543;37.950;-122.338;2023-05-19T08:31:52;37.13;;;8.02;;
70010;SDS011;59543;37.950;-122.338;2023-05-19T08:34:18;39.53;;;8.65;;
70010;SDS011;59543;37.950;-122.338;2023-05-19T08:36:45;37.20;;;7.82;;
70010;SDS011;59543;37.950;-122.338;2023-05-19T08:39:11;35.72;;;8.55;;
70010;SDS011;59543;37.950;-122.338;2023-05-19T08:41:40;37.47;;;8.43;;
70010;SDS011;59543;37.950;-122.338;2023-05-19T08:44:06;46.00;;;8.85;;
70010;SDS011;59543;37.950;-122.338;2023-05-19T08:46:32;37.08;;;8.38;;
70010;SDS011;59543;37.950;-122.338;2023-05-19T08:49:03;44.45;;;9.15;;
70010;SDS011;59543;37.950;-122.338;2023-05-19T08:54:52;42.92;;;9.18;;
70010;SDS011;59543;37.950;-122.338;2023-05-19T08:57:39;35.83;;;8.70;;
70010;SDS011;59543;37.950;-122.338;2023-05-19T09:00:06;46.33;;;9.32;;
70010;SDS011;59543;37.950;-122.338;2023-05-19T09:02:36;41.25;;;8.75;;
70010;SDS011;59543;37.950;-122.338;2023-05-19T09:05:04;43.17;;;9.13;;
70010;SDS011;59543;37.950;-122.338;2023-05-19T09:07:31;38.55;;;8.95;;
70010;SDS011;59543;37.950;-122.338;2023-05-19T09:09:59;40.72;;;8.45;;
70010;SDS011;59543;37.950;-122.338;2023-05-19T09:12:26;40.35;;;9.43;;
70010;SDS011;59543;37.950;-122.338;2023-05-19T09:14:52;43.25;;;9.80;;
70010;SDS011;59543;37.950;-122.338;2023-05-19T09:17:19;39.25;;;9.65;;
70010;SDS011;59543;37.950;-122.338;2023-05-19T09:19:46;41.00;;;9.10;;
70010;SDS011;59543;37.950;-122.338;2023-05-19T09:22:13;48.67;;;10.80;;
70010;SDS011;59543;37.950;-122.338;2023-05-19T09:24:44;33.60;;;8.27;;
70010;SDS011;59543;37.950;-122.338;2023-05-19T09:27:20;43.10;;;9.77;;
70010;SDS011;59543;37.950;-122.338;2023-05-19T09:29:48;47.65;;;9.68;;
70010;SDS011;59543;37.950;-122.338;2023-05-19T09:32:32;32.95;;;8.90;;
70010;SDS011;59543;37.950;-122.338;2023-05-19T09:35:01;42.50;;;8.50;;
70010;SDS011;59543;37.950;-122.338;2023-05-19T09:37:28;34.42;;;8.38;;
70010;SDS011;59543;37.950;-122.338;2023-05-19T09:39:56;43.13;;;8.52;;
70010;SDS011;59543;37.950;-122.338;2023-05-19T09:42:25;45.42;;;9.55;;
70010;SDS011;59543;37.950;-122.338;2023-05-19T09:45:03;37.45;;;7.75;;
70010;SDS011;59543;37.950;-122.338;2023-05-19T09:47:33;34.10;;;8.73;;
70010;SDS011;59543;37.950;-122.338;2023-05-19T09:50:03;35.60;;;9.10;;
70010;SDS011;59543;37.950;-122.338;2023-05-19T09:52:38;39.90;;;9.18;;
70010;SDS011;59543;37.950;-122.338;2023-05-19T09:55:08;41.47;;;9.60;;
70010;SDS011;59543;37.950;-122.338;2023-05-19T09:57:36;33.60;;;8.75;;
70010;SDS011;59543;37.950;-122.338;2023-05-19T10:00:03;30.88;;;8.45;;
70010;SDS011;59543;37.950;-122.338;2023-05-19T10:02:42;35.58;;;8.27;;
70010;SDS011;59543;37.950;-122.338;2023-05-19T10:05:11;37.97;;;9.25;;
70010;SDS011;59543;37.950;-122.338;2023-05-19T10:07:50;39.40;;;9.02;;
70010;SDS011;59543;37.950;-122.338;2023-05-19T10:10:18;45.15;;;9.93;;
70010;SDS011;59543;37.950;-122.338;2023-05-19T10:12:46;39.15;;;9.60;;
70010;SDS011;59543;37.950;-122.338;2023-05-19T10:15:13;42.42;;;9.63;;
70010;SDS011;59543;37.950;-122.338;2023-05-19T10:17:41;48.40;;;9.02;;
70010;SDS011;59543;37.950;-122.338;2023-05-19T10:20:09;35.30;;;8.07;;
70010;SDS011;59543;37.950;-122.338;2023-05-19T10:22:38;34.20;;;8.50;;
70010;SDS011;59543;37.950;-122.338;2023-05-19T10:25:06;40.35;;;8.73;;
70010;SDS011;59543;37.950;-122.338;2023-05-19T10:27:34;40.20;;;9.20;;
70010;SDS011;59543;37.950;-122.338;2023-05-19T10:30:13;36.88;;;8.43;;
70010;SDS011;59543;37.950;-122.338;2023-05-19T10:32:43;37.40;;;8.25;;
70010;SDS011;59543;37.950;-122.338;2023-05-19T10:46:32;42.03;;;9.32;;
70010;SDS011;59543;37.950;-122.338;2023-05-19T10:48:58;37.63;;;9.15;;
70010;SDS011;59543;37.950;-122.338;2023-05-19T10:51:30;33.60;;;9.00;;
70010;SDS011;59543;37.950;-122.338;2023-05-19T10:53:56;34.33;;;8.70;;
70010;SDS011;59543;37.950;-122.338;2023-05-19T10:56:28;38.72;;;9.82;;
70010;SDS011;59543;37.950;-122.338;2023-05-19T10:58:55;38.97;;;8.02;;
70010;SDS011;59543;37.950;-122.338;2023-05-19T11:01:21;39.47;;;9.05;;
70010;SDS011;59543;37.950;-122.338;2023-05-19T11:04:08;48.50;;;9.40;;
70010;SDS011;59543;37.950;-122.338;2023-05-19T11:06:36;35.50;;;8.95;;
70010;SDS011;59543;37.950;-122.338;2023-05-19T11:11:50;37.33;;;9.35;;
70010;SDS011;59543;37.950;-122.338;2023-05-19T11:14:19;37.58;;;9.20;;
70010;SDS011;59543;37.950;-122.338;2023-05-19T11:16:53;36.83;;;8.98;;
70010;SDS011;59543;37.950;-122.338;2023-05-19T11:19:26;36.15;;;8.68;;
70010;SDS011;59543;37.950;-122.338;2023-05-19T11:22:11;32.35;;;7.95;;
70010;SDS011;59543;37.950;-122.338;2023-05-19T11:27:27;33.85;;;8.77;;
70010;SDS011;59543;37.950;-122.338;2023-05-19T11:30:07;40.50;;;8.95;;
70010;SDS011;59543;37.950;-122.338;2023-05-19T11:32:40;35.58;;;8.55;;
70010;SDS011;59543;37.950;-122.338;2023-05-19T11:35:07;28.83;;;7.88;;
70010;SDS011;59543;37.950;-122.338;2023-05-19T11:37:34;31.45;;;8.02;;
70010;SDS011;59543;37.950;-122.338;2023-05-19T11:40:05;31.63;;;8.23;;
70010;SDS011;59543;37.950;-122.338;2023-05-19T11:42:32;32.38;;;8.45;;
70010;SDS011;59543;37.950;-122.338;2023-05-19T11:45:01;35.80;;;8.32;;
70010;SDS011;59543;37.950;-122.338;2023-05-19T11:47:29;32.17;;;8.18;;
70010;SDS011;59543;37.950;-122.338;2023-05-19T11:49:59;36.33;;;8.50;;
70010;SDS011;59543;37.950;-122.338;2023-05-19T11:52:26;40.88;;;8.63;;
70010;SDS011;59543;37.950;-122.338;2023-05-19T11:54:52;36.75;;;8.15;;
70010;SDS011;59543;37.950;-122.338;2023-05-19T11:57:18;34.88;;;8.10;;
70010;SDS011;59543;37.950;-122.338;2023-05-19T11:59:45;37.83;;;9.50;;
70010;SDS011;59543;37.950;-122.338;2023-05-19T12:02:20;43.58;;;9.38;;
70010;SDS011;59543;37.950;-122.338;2023-05-19T12:04:50;42.47;;;10.10;;
70010;SDS011;59543;37.950;-122.338;2023-05-19T12:07:17;38.60;;;9.25;;
70010;SDS011;59543;37.950;-122.338;2023-05-19T12:09:47;42.95;;;10.27;;
70010;SDS011;59543;37.950;-122.338;2023-05-19T12:12:15;35.40;;;9.13;;
70010;SDS011;59543;37.950;-122.338;2023-05-19T12:14:43;30.33;;;8.90;;
70010;SDS011;59543;37.950;-122.338;2023-05-19T12:17:14;34.78;;;8.50;;
70010;SDS011;59543;37.950;-122.338;2023-05-19T12:19:46;32.75;;;8.18;;
70010;SDS011;59543;37.950;-122.338;2023-05-19T12:22:16;38.75;;;8.75;;
70010;SDS011;59543;37.950;-122.338;2023-05-19T12:24:43;34.15;;;8.23;;
70010;SDS011;59543;37.950;-122.338;2023-05-19T12:27:11;31.55;;;8.85;;
70010;SDS011;59543;37.950;-122.338;2023-05-19T12:29:41;34.00;;;7.85;;
70010;SDS011;59543;37.950;-122.338;2023-05-19T12:32:07;35.97;;;9.02;;
70010;SDS011;59543;37.950;-122.338;2023-05-19T12:34:35;39.58;;;9.38;;
70010;SDS011;59543;37.950;-122.338;2023-05-19T12:37:02;37.00;;;9.32;;
70010;SDS011;59543;37.950;-122.338;2023-05-19T12:39:32;28.85;;;8.15;;
70010;SDS011;59543;37.950;-122.338;2023-05-19T12:42:08;28.85;;;7.72;;
70010;SDS011;59543;37.950;-122.338;2023-05-19T12:47:17;28.77;;;8.85;;
70010;SDS011;59543;37.950;-122.338;2023-05-19T12:50:03;26.80;;;8.77;;
70010;SDS011;59543;37.950;-122.338;2023-05-19T12:52:42;32.15;;;9.60;;
70010;SDS011;59543;37.950;-122.338;2023-05-19T12:55:13;32.97;;;10.02;;
70010;SDS011;59543;37.950;-122.338;2023-05-19T12:57:41;38.97;;;9.55;;
70010;SDS011;59543;37.950;-122.338;2023-05-19T13:02:56;41.85;;;9.65;;
70010;SDS011;59543;37.950;-122.338;2023-05-19T13:05:37;31.60;;;9.00;;
70010;SDS011;59543;37.950;-122.338;2023-05-19T13:08:08;27.27;;;8.45;;
70010;SDS011;59543;37.950;-122.338;2023-05-19T13:10:36;35.83;;;9.57;;
70010;SDS011;59543;37.950;-122.338;2023-05-19T13:13:04;25.33;;;7.50;;
70010;SDS011;59543;37.950;-122.338;2023-05-19T13:15:32;27.75;;;8.20;;
70010;SDS011;59543;37.950;-122.338;2023-05-19T13:18:00;25.10;;;7.70;;
70010;SDS011;59543;37.950;-122.338;2023-05-19T13:20:28;39.05;;;8.90;;
70010;SDS011;59543;37.950;-122.338;2023-05-19T13:22:54;38.90;;;8.70;;
70010;SDS011;59543;37.950;-122.338;2023-05-19T13:25:21;32.63;;;9.02;;
70010;SDS011;59543;37.950;-122.338;2023-05-19T13:27:47;28.13;;;8.50;;
70010;SDS011;59543;37.950;-122.338;2023-05-19T13:30:14;30.33;;;7.97;;
70010;SDS011;59543;37.950;-122.338;2023-05-19T13:32:41;40.10;;;9.43;;
70010;SDS011;59543;37.950;-122.338;2023-05-19T13:35:08;36.53;;;8.90;;
70010;SDS011;59543;37.950;-122.338;2023-05-19T13:37:35;25.88;;;8.50;;
70010;SDS011;59543;37.950;-122.338;2023-05-19T13:40:01;31.40;;;8.27;;
70010;SDS011;59543;37.950;-122.338;2023-05-19T13:42:28;25.95;;;7.30;;
70010;SDS011;59543;37.950;-122.338;2023-05-19T13:44:54;23.27;;;7.30;;
70010;SDS011;59543;37.950;-122.338;2023-05-19T13:47:23;29.95;;;8.38;;
70010;SDS011;59543;37.950;-122.338;2023-05-19T13:49:50;31.90;;;8.90;;
70010;SDS011;59543;37.950;-122.338;2023-05-19T13:52:19;33.25;;;8.70;;
70010;SDS011;59543;37.950;-122.338;2023-05-19T13:54:46;30.75;;;8.27;;
70010;SDS011;59543;37.950;-122.338;2023-05-19T13:57:13;31.15;;;8.25;;
70010;SDS011;59543;37.950;-122.338;2023-05-19T13:59:40;34.03;;;8.70;;
70010;SDS011;59543;37.950;-122.338;2023-05-19T14:02:09;32.35;;;7.65;;
70010;SDS011;59543;37.950;-122.338;2023-05-19T14:04:36;37.20;;;8.18;;
70010;SDS011;59543;37.950;-122.338;2023-05-19T14:07:03;23.05;;;6.82;;
70010;SDS011;59543;37.950;-122.338;2023-05-19T14:09:30;20.98;;;6.63;;
70010;SDS011;59543;37.950;-122.338;2023-05-19T14:11:56;29.20;;;7.45;;
70010;SDS011;59543;37.950;-122.338;2023-05-19T14:14:23;21.20;;;6.63;;
70010;SDS011;59543;37.950;-122.338;2023-05-19T14:16:49;23.50;;;7.13;;
70010;SDS011;59543;37.950;-122.338;2023-05-19T14:19:15;23.75;;;6.53;;
70010;SDS011;59543;37.950;-122.338;2023-05-19T14:21:42;30.80;;;6.93;;
70010;SDS011;59543;37.950;-122.338;2023-05-19T14:24:08;28.35;;;7.43;;
70010;SDS011;59543;37.950;-122.338;2023-05-19T14:26:35;24.30;;;6.60;;
70010;SDS011;59543;37.950;-122.338;2023-05-19T14:29:01;23.67;;;7.15;;
70010;SDS011;59543;37.950;-122.338;2023-05-19T14:31:27;25.35;;;6.72;;
70010;SDS011;59543;37.950;-122.338;2023-05-19T14:33:54;24.00;;;7.28;;
70010;SDS011;59543;37.950;-122.338;2023-05-19T14:36:20;22.85;;;6.60;;
70010;SDS011;59543;37.950;-122.338;2023-05-19T14:38:46;20.90;;;6.60;;
70010;SDS011;59543;37.950;-122.338;2023-05-19T14:41:12;29.17;;;7.82;;
70010;SDS011;59543;37.950;-122.338;2023-05-19T14:43:39;19.33;;;6.38;;
70010;SDS011;59543;37.950;-122.338;2023-05-19T14:46:07;26.38;;;6.63;;
70010;SDS011;59543;37.950;-122.338;2023-05-19T14:48:33;23.30;;;6.80;;